Time;durP1;ratioP1;P1;durP2;ratioP2;P2;SDS_P1;SDS_P2;PMS_P1;PMS_P2;Temp;Humidity;BMP_temperature;BMP_pressure;BME280_temperature;BME280_humidity;BME280_pressure;Samples;Min_cycle;Max_cycle;Signal;HPM_P1;HPM_P2
2021/09/09 00:00:42;;;;;;;12.32;9.00;;;17.50;99.90;;;;;;12509207;28;20608;-38
2021/09/09 00:06:45;;;;;;;14.23;8.98;;;17.40;99.90;;;;;;12512667;28;20592;-37
2021/09/09 00:12:47;;;;;;;13.85;9.38;;;17.20;99.90;;;;;;12509112;28;20482;-37
2021/09/09 00:18:49;;;;;;;18.25;9.52;;;17.20;99.90;;;;;;12498401;28;20103;-40
2021/09/09 00:24:51;;;;;;;13.98;9.45;;;17.20;99.90;;;;;;12509959;28;20527;-38
2021/09/09 00:30:53;;;;;;;16.13;10.05;;;17.20;99.90;;;;;;12510245;28;20057;-38
2021/09/09 00:36:55;;;;;;;14.13;8.88;;;17.20;99.90;;;;;;12509399;28;20140;-38
2021/09/09 00:42:57;;;;;;;12.02;9.20;;;17.20;99.90;;;;;;12508943;28;20057;-37
2021/09/09 00:48:59;;;;;;;14.07;9.07;;;17.20;99.90;;;;;;12510402;28;20049;-38
2021/09/09 00:55:02;;;;;;;15.30;9.65;;;17.20;99.90;;;;;;12508240;28;20049;-40
2021/09/09 01:01:06;;;;;;;13.80;9.82;;;17.20;99.90;;;;;;12506006;28;20136;-37
2021/09/09 01:07:11;;;;;;;13.48;9.30;;;17.20;99.90;;;;;;12511771;28;20761;-37
2021/09/09 01:13:13;;;;;;;19.65;10.40;;;17.00;99.90;;;;;;12516193;28;20064;-40
2021/09/09 01:19:16;;;;;;;16.92;10.18;;;16.80;99.90;;;;;;12509715;28;20087;-37
2021/09/09 01:25:24;;;;;;;13.95;10.20;;;16.80;99.90;;;;;;12513990;28;20085;-38
2021/09/09 01:31:26;;;;;;;14.38;10.07;;;16.70;99.90;;;;;;12504999;28;20491;-37
2021/09/09 01:37:30;;;;;;;11.73;9.52;;;16.60;99.90;;;;;;12506055;28;20149;-41
2021/09/09 01:43:33;;;;;;;12.80;9.60;;;16.70;99.90;;;;;;12508519;28;20045;-38
2021/09/09 01:49:34;;;;;;;15.35;10.07;;;16.60;99.90;;;;;;12506227;28;20439;-39
2021/09/09 01:55:36;;;;;;;13.50;10.38;;;16.50;99.90;;;;;;12500362;28;20140;-38
2021/09/09 02:01:38;;;;;;;14.95;10.43;;;16.40;99.90;;;;;;12495077;28;20041;-38
2021/09/09 02:07:41;;;;;;;14.75;10.57;;;16.30;99.90;;;;;;12509224;28;20060;-38
2021/09/09 02:13:44;;;;;;;17.57;11.63;;;16.20;99.90;;;;;;12507400;28;20132;-39
2021/09/09 02:19:46;;;;;;;18.10;11.40;;;16.10;99.90;;;;;;12502745;28;20505;-38
2021/09/09 02:25:48;;;;;;;16.65;10.75;;;16.00;99.90;;;;;;12506602;28;20086;-37
2021/09/09 02:31:51;;;;;;;16.88;11.52;;;16.00;99.90;;;;;;12510315;28;20048;-39
2021/09/09 02:37:53;;;;;;;16.95;11.02;;;15.90;99.90;;;;;;12504826;28;20283;-38
2021/09/09 02:43:54;;;;;;;16.30;11.07;;;15.90;99.90;;;;;;12506919;28;20079;-37
2021/09/09 02:49:56;;;;;;;18.27;11.13;;;15.90;99.90;;;;;;12508096;28;20049;-38
2021/09/09 02:56:01;;;;;;;14.25;10.95;;;15.90;99.90;;;;;;12515811;28;20110;-38
2021/09/09 03:02:04;;;;;;;13.90;10.38;;;15.90;99.90;;;;;;12515247;28;20058;-39
2021/09/09 03:08:06;;;;;;;15.52;11.25;;;15.80;99.90;;;;;;12514468;28;20056;-37
2021/09/09 03:14:08;;;;;;;15.50;10.80;;;15.90;99.90;;;;;;12521223;28;20049;-37
2021/09/09 03:20:12;;;;;;;13.38;10.65;;;15.90;99.90;;;;;;12514853;28;20061;-40
2021/09/09 03:26:14;;;;;;;12.65;9.70;;;15.90;99.90;;;;;;12514509;28;20110;-39
2021/09/09 03:32:16;;;;;;;15.00;10.45;;;15.80;99.90;;;;;;12511116;28;20382;-38
2021/09/09 03:38:21;;;;;;;12.88;9.98;;;15.80;99.90;;;;;;12512357;28;20103;-39
2021/09/09 03:44:23;;;;;;;13.10;10.00;;;15.90;99.90;;;;;;12509139;28;20045;-38
2021/09/09 03:50:25;;;;;;;12.90;10.52;;;15.90;99.90;;;;;;12519204;28;20478;-37
2021/09/09 03:56:27;;;;;;;14.32;9.90;;;15.80;99.90;;;;;;12510358;28;20060;-38
2021/09/09 04:02:29;;;;;;;13.93;10.80;;;15.70;99.90;;;;;;12513049;28;20049;-40
2021/09/09 04:08:38;;;;;;;14.57;10.20;;;15.60;99.90;;;;;;12511418;28;20512;-40
2021/09/09 04:14:50;;;;;;;20.75;10.05;;;15.60;99.90;;;;;;12510125;28;20045;-38
2021/09/09 04:20:52;;;;;;;13.60;10.43;;;15.50;99.90;;;;;;12507797;28;20426;-37
2021/09/09 04:26:54;;;;;;;13.02;9.98;;;15.30;99.90;;;;;;12508666;28;20136;-37
2021/09/09 04:32:56;;;;;;;14.05;9.77;;;15.20;99.90;;;;;;12509873;28;20049;-38
2021/09/09 04:38:58;;;;;;;16.77;9.82;;;15.30;99.90;;;;;;12510485;28;20087;-38
2021/09/09 04:45:02;;;;;;;15.10;10.15;;;15.20;99.90;;;;;;12517148;28;20077;-38
2021/09/09 04:51:07;;;;;;;13.65;10.18;;;15.30;99.90;;;;;;12510246;28;20132;-40
2021/09/09 04:57:09;;;;;;;13.38;9.98;;;15.30;99.90;;;;;;12510371;28;20140;-40
2021/09/09 05:03:11;;;;;;;12.88;9.50;;;15.30;99.90;;;;;;12506579;28;20072;-38
2021/09/09 05:09:17;;;;;;;12.60;9.38;;;15.20;99.90;;;;;;12505780;28;20059;-37
2021/09/09 05:15:19;;;;;;;16.02;10.13;;;15.20;99.90;;;;;;12506393;28;20795;-38
2021/09/09 05:21:21;;;;;;;19.27;10.60;;;15.10;99.90;;;;;;12506873;28;20135;-38
2021/09/09 05:27:23;;;;;;;14.48;9.82;;;15.20;99.90;;;;;;12507842;28;20094;-37
2021/09/09 05:33:25;;;;;;;14.98;10.35;;;15.10;99.90;;;;;;12508491;28;20106;-40
2021/09/09 05:39:33;;;;;;;12.65;9.88;;;15.00;99.90;;;;;;12507786;28;20170;-38
2021/09/09 05:45:35;;;;;;;13.20;9.68;;;15.20;99.90;;;;;;12506996;28;20094;-40
2021/09/09 05:51:37;;;;;;;15.85;10.25;;;15.30;99.90;;;;;;12494940;28;20521;-39
2021/09/09 05:57:41;;;;;;;17.05;11.18;;;15.20;99.90;;;;;;12506152;28;20481;-38
2021/09/09 06:03:46;;;;;;;;;;;15.30;99.90;;;;;;12503169;28;20056;-38
2021/09/09 06:09:48;;;;;;;13.77;10.30;;;15.30;99.90;;;;;;12506000;28;20015;-39
2021/09/09 06:15:50;;;;;;;13.27;10.07;;;15.40;99.90;;;;;;12502278;28;20563;-37
2021/09/09 06:21:52;;;;;;;15.85;10.50;;;15.50;99.90;;;;;;12500894;28;20037;-39
2021/09/09 06:27:54;;;;;;;17.83;10.98;;;15.50;99.90;;;;;;12502033;28;20053;-37
2021/09/09 06:33:56;;;;;;;16.33;10.73;;;15.60;99.90;;;;;;12500883;28;20057;-37
2021/09/09 06:39:58;;;;;;;16.20;10.32;;;15.60;99.90;;;;;;12504630;28;20050;-39
2021/09/09 06:46:00;;;;;;;15.10;10.25;;;15.70;99.90;;;;;;12505481;28;20131;-37
2021/09/09 06:52:02;;;;;;;12.98;10.32;;;15.80;99.90;;;;;;12503940;28;20056;-37
2021/09/09 06:58:06;;;;;;;15.98;11.23;;;15.90;99.90;;;;;;12503875;28;20100;-41
2021/09/09 07:04:08;;;;;;;15.05;10.75;;;15.90;99.90;;;;;;12500690;28;20055;-37
2021/09/09 07:10:11;;;;;;;15.88;10.43;;;16.10;99.90;;;;;;12500167;28;20064;-37
2021/09/09 07:16:13;;;;;;;15.48;10.45;;;16.20;99.90;;;;;;12504378;28;20098;-37
2021/09/09 07:22:15;;;;;;;16.45;10.70;;;16.30;99.90;;;;;;12498250;28;20038;-37
2021/09/09 07:28:19;;;;;;;;;;;16.40;99.90;;;;;;12505732;28;20053;-38
2021/09/09 07:34:21;;;;;;;13.85;9.98;;;16.60;99.90;;;;;;12513879;28;19925;-37
2021/09/09 07:40:24;;;;;;;12.05;8.55;;;16.80;99.90;;;;;;12512659;28;20049;-39
2021/09/09 07:46:30;;;;;;;14.55;9.25;;;16.90;99.90;;;;;;12510557;28;20052;-40
2021/09/09 07:52:32;;;;;;;13.05;9.05;;;17.00;99.90;;;;;;12508907;28;20052;-38
2021/09/09 07:58:34;;;;;;;13.75;10.15;;;17.20;99.90;;;;;;12509737;28;20053;-38
2021/09/09 08:04:36;;;;;;;13.13;9.45;;;17.40;99.90;;;;;;12506887;28;20533;-38
2021/09/09 08:10:39;;;;;;;11.82;8.88;;;17.70;99.90;;;;;;12504845;28;20736;-38
2021/09/09 08:16:41;;;;;;;12.50;9.02;;;17.90;99.90;;;;;;12508595;28;20448;-37
2021/09/09 08:22:43;;;;;;;12.48;7.05;;;18.20;99.90;;;;;;12508004;28;20481;-37
2021/09/09 08:28:46;;;;;;;16.90;6.90;;;18.60;99.90;;;;;;12508043;28;20093;-37
2021/09/09 08:34:48;;;;;;;17.13;6.70;;;19.70;99.90;;;;;;12509907;28;20489;-38
2021/09/09 08:40:51;;;;;;;12.93;6.57;;;20.50;99.90;;;;;;12508905;28;20041;-38
2021/09/09 08:46:53;;;;;;;10.03;5.90;;;20.80;99.90;;;;;;12507999;28;20049;-37
2021/09/09 08:52:58;;;;;;;10.45;6.22;;;21.20;99.90;;;;;;12508557;28;20053;-38
2021/09/09 08:59:00;;;;;;;10.50;5.82;;;21.60;99.90;;;;;;12512472;28;20064;-37
2021/09/09 09:05:10;;;;;;;8.87;5.83;;;21.90;99.90;;;;;;12500944;28;20140;-38
2021/09/09 09:11:25;;;;;;;10.10;6.47;;;22.20;99.90;;;;;;12506897;28;20049;-40
2021/09/09 09:17:27;;;;;;;10.20;5.93;;;22.60;99.90;;;;;;12504358;28;20061;-38
2021/09/09 09:23:29;;;;;;;9.60;5.88;;;22.70;99.90;;;;;;12509043;28;20049;-38
2021/09/09 09:29:32;;;;;;;10.57;5.32;;;22.90;99.90;;;;;;12512222;28;20554;-39
2021/09/09 09:35:35;;;;;;;8.82;5.65;;;23.20;99.90;;;;;;12509233;28;20056;-38
2021/09/09 09:42:02;;;;;;;8.70;5.72;;;23.30;99.90;;;;;;12506928;28;20148;-37
2021/09/09 09:48:04;;;;;;;8.70;5.57;;;23.50;99.90;;;;;;12502027;28;20444;-36
2021/09/09 09:54:09;;;;;;;9.07;5.40;;;23.70;99.90;;;;;;12503860;28;20060;-38
2021/09/09 10:00:11;;;;;;;11.18;6.07;;;24.00;99.90;;;;;;12507385;28;20045;-38
2021/09/09 10:06:13;;;;;;;10.75;5.68;;;24.10;99.90;;;;;;12510057;28;20053;-38
2021/09/09 10:12:15;;;;;;;12.17;6.87;;;24.40;99.90;;;;;;12509167;28;20064;-39
2021/09/09 10:18:18;;;;;;;7.43;5.53;;;24.60;99.90;;;;;;12508274;28;20130;-36
2021/09/09 10:24:31;;;;;;;7.47;5.57;;;24.60;99.90;;;;;;12507095;28;20554;-37
2021/09/09 10:30:33;;;;;;;11.40;6.05;;;24.80;99.90;;;;;;12508320;28;20135;-39
2021/09/09 10:36:46;;;;;;;13.00;6.13;;;25.00;99.90;;;;;;12492724;28;20416;-36
2021/09/09 10:42:49;;;;;;;;;;;25.00;99.90;;;;;;12507262;28;20037;-38
2021/09/09 10:49:13;;;;;;;11.25;6.03;;;25.20;99.90;;;;;;12502562;28;20015;-38
2021/09/09 10:55:25;;;;;;;8.82;6.63;;;25.40;99.90;;;;;;12504618;28;20672;-38
2021/09/09 11:01:27;;;;;;;9.57;6.80;;;25.60;99.90;;;;;;12507025;28;20049;-38
2021/09/09 11:07:31;;;;;;;7.72;5.85;;;25.80;99.90;;;;;;12511235;28;20128;-37
2021/09/09 11:13:36;;;;;;;6.95;5.57;;;26.00;99.90;;;;;;12516308;28;20076;-36
2021/09/09 11:19:39;;;;;;;9.63;6.32;;;26.20;99.90;;;;;;12518272;28;20065;-38
2021/09/09 11:25:40;;;;;;;13.90;6.40;;;26.30;99.90;;;;;;12512454;28;20045;-37
2021/09/09 11:31:54;;;;;;;9.37;5.87;;;26.50;99.90;;;;;;12513789;28;20482;-37
2021/09/09 11:37:56;;;;;;;8.30;5.40;;;26.80;99.90;;;;;;12511595;28;20074;-37
2021/09/09 11:44:10;;;;;;;7.87;4.73;;;27.00;99.90;;;;;;12513476;28;20080;-39
2021/09/09 11:50:23;;;;;;;9.50;5.47;;;27.20;99.90;;;;;;12509664;28;20283;-39
2021/09/09 11:56:25;;;;;;;8.98;5.63;;;27.20;99.90;;;;;;12510743;28;20060;-38
2021/09/09 12:02:32;;;;;;;7.22;5.50;;;27.30;99.90;;;;;;12508730;28;20102;-39
2021/09/09 12:08:39;;;;;;;9.27;5.38;;;27.50;99.90;;;;;;12513820;28;20052;-37
2021/09/09 12:14:55;;;;;;;7.53;5.03;;;27.50;99.90;;;;;;12504788;28;20045;-38
2021/09/09 12:21:12;;;;;;;8.43;5.38;;;27.80;99.90;;;;;;12512535;28;20048;-38
2021/09/09 12:27:18;;;;;;;8.20;5.18;;;28.10;99.90;;;;;;12515276;28;20055;-41
2021/09/09 12:33:22;;;;;;;13.20;6.18;;;27.90;99.90;;;;;;12497699;28;20391;-38
2021/09/09 12:39:25;;;;;;;8.18;5.28;;;28.40;99.90;;;;;;12513955;28;20064;-38
2021/09/09 12:45:43;;;;;;;7.97;5.38;;;28.50;99.90;;;;;;12512451;28;20049;-39
2021/09/09 12:51:50;;;;;;;7.38;5.13;;;28.40;99.90;;;;;;12513999;28;20072;-39
2021/09/09 12:57:53;;;;;;;34.40;5.68;;;28.50;99.90;;;;;;12519386;28;20049;-37
2021/09/09 13:03:55;;;;;;;7.30;5.18;;;28.70;99.90;;;;;;12510422;28;20130;-38
2021/09/09 13:09:58;;;;;;;13.82;5.20;;;28.20;99.90;;;;;;12512447;28;20087;-38
2021/09/09 13:16:02;;;;;;;48.97;6.55;;;28.60;99.90;;;;;;12513519;28;20190;-36
2021/09/09 13:22:13;;;;;;;6.95;4.35;;;27.50;99.90;;;;;;12512135;28;20072;-37
2021/09/09 13:28:16;;;;;;;9.43;4.50;;;26.90;99.90;;;;;;12509868;28;20064;-38
2021/09/09 13:34:18;;;;;;;5.55;3.85;;;27.20;99.90;;;;;;12507423;28;20049;-37
2021/09/09 13:40:20;;;;;;;6.00;4.15;;;27.50;99.90;;;;;;12515146;28;20052;-37
2021/09/09 13:46:22;;;;;;;8.40;4.33;;;28.00;99.90;;;;;;12510488;28;20071;-37
2021/09/09 13:52:24;;;;;;;6.15;4.40;;;28.30;99.90;;;;;;12505828;28;20081;-38
2021/09/09 13:58:26;;;;;;;6.40;3.57;;;28.30;99.90;;;;;;12505519;28;20095;-38
2021/09/09 14:04:30;;;;;;;;;;;28.30;99.90;;;;;;12505885;28;20569;-37
2021/09/09 14:10:33;;;;;;;7.68;4.20;;;28.10;99.90;;;;;;12501995;28;20397;-38
2021/09/09 14:16:36;;;;;;;21.52;4.70;;;27.90;99.90;;;;;;12509339;28;20394;-38
2021/09/09 14:22:38;;;;;;;7.45;4.82;;;27.90;99.90;;;;;;12502772;28;20091;-38
2021/09/09 14:28:40;;;;;;;6.43;4.30;;;28.00;99.90;;;;;;12505074;28;20075;-38
2021/09/09 14:34:44;;;;;;;8.45;4.28;;;28.10;99.90;;;;;;12502409;28;20331;-38
2021/09/09 14:40:46;;;;;;;8.63;4.68;;;28.00;99.90;;;;;;12510153;28;20402;-38
2021/09/09 14:46:48;;;;;;;6.45;4.55;;;28.30;99.90;;;;;;12516017;28;20049;-38
2021/09/09 14:52:50;;;;;;;10.80;4.60;;;28.00;99.90;;;;;;12515045;28;20052;-38
2021/09/09 14:58:52;;;;;;;7.85;4.50;;;27.60;99.90;;;;;;12515214;28;20056;-39
2021/09/09 15:04:57;;;;;;;9.15;4.38;;;28.10;99.90;;;;;;12509123;28;20158;-38
2021/09/09 15:11:06;;;;;;;6.87;4.73;;;28.60;99.90;;;;;;12512539;28;20429;-38
2021/09/09 15:17:10;;;;;;;7.13;4.60;;;28.90;99.90;;;;;;12511657;28;20054;-38
2021/09/09 15:23:12;;;;;;;5.38;4.30;;;29.00;99.90;;;;;;12512839;28;20468;-39
2021/09/09 15:29:14;;;;;;;8.15;4.75;;;29.30;99.90;;;;;;12520583;28;20056;-38
2021/09/09 15:35:16;;;;;;;7.60;4.75;;;29.20;99.90;;;;;;12518205;28;20147;-38
2021/09/09 15:41:18;;;;;;;5.88;4.25;;;29.30;99.90;;;;;;12519952;28;20060;-38
2021/09/09 15:47:20;;;;;;;5.93;4.35;;;29.20;99.90;;;;;;12526497;28;20472;-38
2021/09/09 15:53:23;;;;;;;7.25;3.92;;;28.80;99.90;;;;;;12516408;28;20041;-38
2021/09/09 15:59:43;;;;;;;9.85;4.38;;;29.00;99.90;;;;;;12515118;28;20132;-40
2021/09/09 16:05:45;;;;;;;7.28;4.35;;;29.00;99.90;;;;;;12514183;28;20049;-39
2021/09/09 16:11:49;;;;;;;6.90;4.38;;;29.00;99.90;;;;;;12516584;28;20496;-39
2021/09/09 16:17:51;;;;;;;5.90;4.22;;;28.40;99.90;;;;;;12513162;28;20064;-37
2021/09/09 16:23:53;;;;;;;5.45;4.05;;;28.30;99.90;;;;;;12512516;28;20048;-38
2021/09/09 16:29:56;;;;;;;;;;;28.30;99.90;;;;;;12513889;28;20061;-37
2021/09/09 16:35:58;;;;;;;8.73;4.00;;;28.30;99.90;;;;;;12512670;28;20059;-38
2021/09/09 16:42:00;;;;;;;10.43;4.50;;;28.00;99.90;;;;;;12517748;28;20491;-38
2021/09/09 16:48:02;;;;;;;7.13;4.00;;;27.70;99.90;;;;;;12514186;28;20398;-38
2021/09/09 16:54:04;;;;;;;7.60;4.15;;;27.10;99.90;;;;;;12510269;28;20064;-39
2021/09/09 17:00:14;;;;;;;6.80;4.77;;;26.70;99.90;;;;;;12509979;28;20677;-38
2021/09/09 17:06:16;;;;;;;6.82;4.40;;;26.10;99.90;;;;;;12516793;28;20070;-38
2021/09/09 17:12:18;;;;;;;6.88;4.72;;;25.60;99.90;;;;;;12514684;28;20049;-41
2021/09/09 17:18:20;;;;;;;7.53;4.60;;;25.30;99.90;;;;;;12512676;28;20515;-39
2021/09/09 17:24:23;;;;;;;7.43;5.13;;;25.00;99.90;;;;;;12508461;28;20152;-38
2021/09/09 17:30:25;;;;;;;7.07;4.72;;;24.80;99.90;;;;;;12512576;28;20085;-38
2021/09/09 17:36:27;;;;;;;8.90;5.25;;;24.60;99.90;;;;;;12513357;28;20810;-37
2021/09/09 17:42:28;;;;;;;10.20;5.18;;;24.30;99.90;;;;;;12512580;28;20054;-38
2021/09/09 17:48:32;;;;;;;9.07;5.38;;;24.00;99.90;;;;;;12514974;28;20048;-38
2021/09/09 17:54:35;;;;;;;8.43;5.30;;;23.90;99.90;;;;;;12510509;28;20412;-38
2021/09/09 18:00:37;;;;;;;8.67;5.30;;;23.70;99.90;;;;;;12509631;28;21302;-38
2021/09/09 18:06:42;;;;;;;12.10;5.82;;;23.60;99.90;;;;;;12507522;28;20186;-38
2021/09/09 18:12:44;;;;;;;10.40;5.88;;;23.40;99.90;;;;;;12510927;28;20070;-41
2021/09/09 18:18:46;;;;;;;10.45;6.00;;;23.30;99.90;;;;;;12508688;28;20061;-38
2021/09/09 18:24:55;;;;;;;10.85;6.30;;;23.20;99.90;;;;;;12510149;28;20058;-39
2021/09/09 18:30:57;;;;;;;11.68;6.13;;;23.10;99.90;;;;;;12508722;28;20046;-41
2021/09/09 18:37:00;;;;;;;11.43;6.63;;;23.10;99.90;;;;;;12513805;28;20147;-38
2021/09/09 18:43:03;;;;;;;11.27;7.28;;;23.00;99.90;;;;;;12510245;28;20091;-38
2021/09/09 18:49:04;;;;;;;12.57;6.53;;;23.20;99.90;;;;;;12511946;28;20061;-43
2021/09/09 18:55:07;;;;;;;14.70;7.25;;;23.20;99.90;;;;;;12506198;28;20136;-38
2021/09/09 19:01:09;;;;;;;9.80;6.93;;;23.30;99.90;;;;;;12507827;28;20048;-39
2021/09/09 19:07:15;;;;;;;11.25;7.07;;;23.20;99.90;;;;;;12508225;28;20094;-39
2021/09/09 19:13:17;;;;;;;10.73;7.90;;;23.10;99.90;;;;;;12508095;28;20079;-39
2021/09/09 19:19:19;;;;;;;11.20;7.75;;;23.10;99.90;;;;;;12503622;28;20808;-38
2021/09/09 19:25:21;;;;;;;12.00;8.35;;;23.10;99.90;;;;;;12504752;28;20052;-38
2021/09/09 19:31:23;;;;;;;13.05;8.23;;;23.20;99.90;;;;;;12512467;28;20049;-38
2021/09/09 19:37:28;;;;;;;12.30;8.13;;;23.10;99.90;;;;;;12497044;28;20053;-38
2021/09/09 19:43:30;;;;;;;15.85;9.32;;;23.00;99.90;;;;;;12509767;28;20059;-39
2021/09/09 19:49:33;;;;;;;15.20;9.30;;;23.00;99.90;;;;;;12516050;28;20048;-39
2021/09/09 19:55:34;;;;;;;16.40;9.93;;;22.90;99.90;;;;;;12513522;28;20098;-38
2021/09/09 20:01:37;;;;;;;13.82;9.60;;;22.90;99.90;;;;;;12512365;28;20126;-38
2021/09/09 20:07:40;;;;;;;14.55;8.75;;;22.80;99.90;;;;;;12509935;28;20055;-39
2021/09/09 20:13:41;;;;;;;12.63;8.23;;;22.70;99.90;;;;;;12507190;28;20052;-38
2021/09/09 20:19:43;;;;;;;14.30;8.60;;;22.40;99.90;;;;;;12510803;28;20085;-38
2021/09/09 20:25:45;;;;;;;14.13;9.38;;;22.30;99.90;;;;;;12504863;28;20084;-36
2021/09/09 20:31:47;;;;;;;12.52;7.40;;;22.20;99.90;;;;;;12510219;28;20091;-37
2021/09/09 20:37:50;;;;;;;10.77;5.80;;;21.60;99.90;;;;;;12510231;28;20584;-37
2021/09/09 20:43:51;;;;;;;29.83;10.18;;;21.20;99.90;;;;;;12515379;28;20738;-37
2021/09/09 20:49:53;;;;;;;28.83;10.70;;;20.50;99.90;;;;;;12515072;28;20758;-38
2021/09/09 20:55:55;;;;;;;26.25;7.60;;;20.00;99.90;;;;;;12519948;28;20053;-38
2021/09/09 21:01:57;;;;;;;21.75;6.55;;;19.30;99.90;;;;;;12513715;28;20497;-37
2021/09/09 21:08:00;;;;;;;14.70;6.43;;;18.80;99.90;;;;;;12519140;28;20057;-38
2021/09/09 21:14:02;;;;;;;11.25;5.53;;;18.70;99.90;;;;;;12516412;28;20054;-38
2021/09/09 21:20:04;;;;;;;26.63;6.20;;;18.80;99.90;;;;;;12504086;28;21218;-37
2021/09/09 21:26:06;;;;;;;28.58;6.28;;;18.90;99.90;;;;;;12509432;28;20493;-37
2021/09/09 21:32:08;;;;;;;13.95;5.65;;;18.70;99.90;;;;;;12511259;28;20500;-38
2021/09/09 21:38:10;;;;;;;10.02;4.07;;;18.40;99.90;;;;;;12502654;28;20049;-39
2021/09/09 21:44:12;;;;;;;12.02;5.10;;;18.60;99.90;;;;;;12505346;28;20110;-38
2021/09/09 21:50:14;;;;;;;11.45;5.00;;;18.40;99.90;;;;;;12510044;28;20060;-38
2021/09/09 21:56:16;;;;;;;10.93;4.53;;;18.40;99.90;;;;;;12505857;28;20539;-38
2021/09/09 22:02:19;;;;;;;8.82;4.40;;;18.30;99.90;;;;;;12506294;28;20136;-37
2021/09/09 22:08:21;;;;;;;8.55;4.40;;;18.40;99.90;;;;;;12506671;28;20099;-39
2021/09/09 22:14:23;;;;;;;8.15;5.78;;;18.30;99.90;;;;;;12506948;28;20046;-37
2021/09/09 22:20:28;;;;;;;9.40;6.13;;;18.30;99.90;;;;;;12504144;28;20128;-38
2021/09/09 22:26:30;;;;;;;10.55;6.05;;;18.40;99.90;;;;;;12504916;28;20064;-38
2021/09/09 22:32:32;;;;;;;9.40;6.72;;;18.50;99.90;;;;;;12502760;28;20040;-37
2021/09/09 22:38:34;;;;;;;8.27;6.22;;;18.50;99.90;;;;;;12506689;28;20593;-37
2021/09/09 22:44:36;;;;;;;13.40;7.57;;;18.50;99.90;;;;;;12504827;28;20532;-39
2021/09/09 22:50:38;;;;;;;12.40;9.48;;;18.50;99.90;;;;;;12502515;28;20055;-37
2021/09/09 22:56:40;;;;;;;11.48;9.38;;;18.60;99.90;;;;;;12502070;28;20041;-38
2021/09/09 23:02:42;;;;;;;16.23;10.73;;;18.60;99.90;;;;;;12501373;28;20166;-43
2021/09/09 23:08:45;;;;;;;13.85;10.60;;;18.80;99.90;;;;;;12509703;28;20135;-40
2021/09/09 23:14:46;;;;;;;17.00;10.55;;;19.00;99.90;;;;;;12511555;28;20167;-37
2021/09/09 23:20:48;;;;;;;14.40;10.93;;;18.90;99.90;;;;;;12514430;28;20101;-38
2021/09/09 23:26:51;;;;;;;14.00;11.02;;;18.90;99.90;;;;;;12515278;28;20049;-37
2021/09/09 23:32:53;;;;;;;12.73;10.57;;;18.90;99.90;;;;;;12511625;28;20164;-37
2021/09/09 23:38:56;;;;;;;11.10;9.77;;;18.80;99.90;;;;;;12515132;28;20051;-38
2021/09/09 23:44:58;;;;;;;16.67;10.50;;;18.70;99.90;;;;;;12516495;28;20140;-37
2021/09/09 23:51:00;;;;;;;15.88;10.25;;;18.70;99.90;;;;;;12516172;28;20049;-37
2021/09/09 23:57:02;;;;;;;14.00;10.60;;;18.60;99.90;;;;;;12509557;28;20091;-37
